Aérodrome :
LOGIN :

S'inscrire | Disclaimer

   EN    FR    IT 

 










Légende :    VFR   VFR Marginal   IFR   IFR Intensif   IFR Très Intensif
Visi : 
Plafond : 
>= 8 km
>= 3000ft
5 à 8 km
1000 à 3000 ft
1500m à 5 km
500 à 1000 ft
800 à 1500m
200 à 500 ft
< 800m
< 200 ft
Symboles :   Orages  Brouillard  Fortes neiges  Fortes précipitations  Vent > 20 kt
SIGMETs :   Divers  Orages  Givrage  Turbulence  Onde Orograph.  Cendres Volcan.






- Altitude de l'aérodrome : 46 ft
- Code IATA : SNN


EINN - Shannon

DERNIER METAR :
  • 280030Z 25012KT 9999 FEW010 FEW018CB SCT100 02/00 Q0990 TEMPO 3000 BKN008

METARs EXPIRÉS :
  • 280000Z 23010KT 9999 FEW018CB SCT040 BKN140 02/00 Q0990 TEMPO 0800 BKN005
  • 272330Z 23010KT 9999 FEW010 SCT018CB BKN044 02/00 Q0990 TEMPO 0800 BKN005
  • 272300Z 28013KT 9000 -SHRASN FEW010 SCT018CB BKN060 02/00 Q0990 TEMPO 0800 BKN005
  • 272230Z 26009KT 9999 SCT013 SCT018CB BKN060 01/00 Q0989 TEMPO 0800 BKN005
  • 272200Z 27017KT 5000 -SHRASN SCT018CB BKN030 BKN150 02/00 Q0989 TEMPO 3000 BKN008

TAF TAF EINN
Valide du 28 à 00h jusqu'au 29 à 00h UTC


272300Z 2800/2824 27013KT 9999 FEW012 BKN030
BECMG 2800/2802 21009KT
TEMPO 2800/2806 3000 -SHSN BKN007 SCT018CB
PROB30
TEMPO 2800/2806 0800 SHSN BKN003
BECMG 2804/2806 25013KT
TEMPO 2806/2810 24015G27KT 4000 SHRASN BKN008 BKN018CB
BECMG 2809/2811 26017G28KT
TEMPO 2810/2817 5000 SHRA BKN012 BKN018CB
TEMPO 2812/2817 27020G33KT
BECMG 2817/2819 27014KT
TEMPO 2817/2824 7000 -SHRA SCT012 BKN018CB
TEMPO 2820/2824 28015G26KT



MET'MAP, la Météo Aéronautique d'un coup d'oeil ! - Copyright ORBIFLY Décembre 2007 - Disclaimer

ORBIFLY MET'MAP TEAM :

Programmation & Développement : Alexandra Zaïnal
Sur une idée originale de : Baudouin d'Aumeries
Assistance à la programmation : Marc-Olivier Méhu
Soutien technique & logistique : Manuel Goepfert

Contact : metmap@orbifly.com




SOURCES & CREDITS :

   NOAA